createdAt,value
2022-11-15T00:01:11.104Z,96977.53
2022-11-15T00:03:39.389Z,96966.69
2022-11-15T00:06:07.741Z,96963.44
2022-11-15T00:08:36.068Z,96958.81
2022-11-15T00:11:04.771Z,96959.66
2022-11-15T00:13:33.304Z,96957.84
2022-11-15T00:16:02.682Z,96961.63
2022-11-15T00:18:32.611Z,96952.22
2022-11-15T00:21:06.069Z,96954.44
2022-11-15T00:23:34.714Z,96950.91
2022-11-15T00:26:03.367Z,96949.56
2022-11-15T00:28:31.810Z,96949.09
2022-11-15T00:31:03.379Z,96964.47
2022-11-15T00:33:33.455Z,96948.94
2022-11-15T00:36:03.774Z,96951.50
2022-11-15T00:38:34.434Z,96944.47
2022-11-15T00:41:08.871Z,96952.22
2022-11-15T00:43:37.799Z,96944.03
2022-11-15T00:46:06.149Z,96947.38
2022-11-15T00:48:35.843Z,96951.75
2022-11-15T00:51:04.112Z,96947.66
2022-11-15T00:53:32.714Z,96950.91
2022-11-15T00:56:01.523Z,96951.03
2022-11-15T00:58:29.810Z,96940.06
2022-11-15T01:00:58.116Z,96942.75
2022-11-15T01:03:26.468Z,96940.47
2022-11-15T01:05:56.410Z,96942.44
2022-11-15T01:08:24.700Z,96936.69
2022-11-15T01:10:52.983Z,96942.56
2022-11-15T01:13:21.233Z,96942.56
2022-11-15T01:15:49.755Z,96944.81
2022-11-15T01:18:18.033Z,96940.75
2022-11-15T01:20:46.298Z,96944.41
2022-11-15T01:23:15.979Z,96937.34
2022-11-15T01:25:44.530Z,96946.53
2022-11-15T01:28:12.811Z,96934.41
2022-11-15T01:30:41.136Z,96939.19
2022-11-15T01:33:09.715Z,96939.06
2022-11-15T01:35:41.400Z,96931.13
2022-11-15T01:38:09.748Z,96931.28
2022-11-15T01:40:39.421Z,96925.34
2022-11-15T01:43:22.549Z,96928.59
2022-11-15T01:45:53.040Z,96923.25
2022-11-15T01:48:21.343Z,96920.81
2022-11-15T01:50:49.592Z,96920.72
2022-11-15T01:53:17.891Z,96921.66
2022-11-15T01:55:47.544Z,96923.09
2022-11-15T01:58:15.792Z,96922.28
2022-11-15T02:00:44.125Z,96920.72
2022-11-15T02:03:12.423Z,96913.13
2022-11-15T02:05:40.720Z,96912.28
2022-11-15T02:08:08.998Z,96914.22
2022-11-15T02:10:37.595Z,96910.97
2022-11-15T02:13:07.314Z,96910.97
2022-11-15T02:15:39.616Z,96916.28
2022-11-15T02:18:13.254Z,96911.19
2022-11-15T02:20:51.860Z,96910.94
2022-11-15T02:23:38.053Z,96902.06
2022-11-15T02:26:19.549Z,96897.03
2022-11-15T02:28:52.097Z,96899.63
2022-11-15T02:31:24.750Z,96902.69
2022-11-15T02:33:55.621Z,96902.88
2022-11-15T02:36:29.326Z,96895.88
2022-11-15T02:39:00.973Z,96893.94
2022-11-15T02:41:32.145Z,96887.31
2022-11-15T02:44:02.318Z,96887.59
2022-11-15T02:46:49.224Z,96893.06
2022-11-15T02:49:17.524Z,96890.34
2022-11-15T02:51:46.672Z,96880.47
2022-11-15T02:54:16.466Z,96876.13
2022-11-15T02:56:45.545Z,96870.97
2022-11-15T02:59:21.314Z,96872.13
2022-11-15T03:01:58.574Z,96876.94
2022-11-15T03:04:30.527Z,96868.06
2022-11-15T03:07:02.806Z,96860.88
2022-11-15T03:09:34.956Z,96862.84
2022-11-15T03:12:05.882Z,96863.72
2022-11-15T03:14:35.943Z,96868.47
2022-11-15T03:17:09.450Z,96868.94
2022-11-15T03:19:39.768Z,96862.50
2022-11-15T03:22:08.767Z,96865.66
2022-11-15T03:24:37.481Z,96861.84
2022-11-15T03:27:05.829Z,96872.72
2022-11-15T03:29:35.169Z,96877.09
2022-11-15T03:32:07.818Z,96874.63
2022-11-15T03:34:38.629Z,96869.44
2022-11-15T03:37:06.919Z,96872.06
2022-11-15T03:39:35.202Z,96866.84
2022-11-15T03:42:09.717Z,96870.97
2022-11-15T03:44:42.992Z,96865.94
2022-11-15T03:47:17.648Z,96863.28
2022-11-15T03:49:47.557Z,96862.72
2022-11-15T03:52:16.328Z,96859.13
2022-11-15T03:54:51.329Z,96858.97
2022-11-15T03:57:19.660Z,96855.16
2022-11-15T03:59:47.949Z,96845.78
2022-11-15T04:02:17.579Z,96850.47
2022-11-15T04:04:46.398Z,96842.06
2022-11-15T04:07:14.761Z,96843.59
2022-11-15T04:09:57.335Z,96836.53
2022-11-15T04:12:31.994Z,96836.16
2022-11-15T04:15:09.562Z,96839.44
2022-11-15T04:17:40.817Z,96840.66
2022-11-15T04:20:25.165Z,96834.09
2022-11-15T04:23:09.107Z,96841.44
2022-11-15T04:25:37.454Z,96837.25
2022-11-15T04:28:06.196Z,96845.03
2022-11-15T04:30:34.485Z,96838.59
2022-11-15T04:33:04.137Z,96837.91
2022-11-15T04:35:32.663Z,96842.34
2022-11-15T04:37:59.939Z,96846.72
2022-11-15T04:40:28.246Z,96844.81
2022-11-15T04:43:03.285Z,96846.72
2022-11-15T04:45:32.063Z,96847.19
2022-11-15T04:48:00.311Z,96838.69
2022-11-15T04:50:29.985Z,96839.28
2022-11-15T04:52:58.270Z,96841.81
2022-11-15T04:55:26.882Z,96845.22
2022-11-15T04:58:01.443Z,96835.69
2022-11-15T05:00:30.365Z,96837.31
2022-11-15T05:03:12.813Z,96834.31
2022-11-15T05:05:42.539Z,96833.78
2022-11-15T05:08:10.782Z,96841.13
2022-11-15T05:10:39.760Z,96832.88
2022-11-15T05:13:08.063Z,96832.53
2022-11-15T05:15:36.348Z,96830.88
2022-11-15T05:18:04.633Z,96836.06
2022-11-15T05:20:32.897Z,96835.00
2022-11-15T05:23:02.549Z,96839.06
2022-11-15T05:25:31.144Z,96843.44
2022-11-15T05:27:59.533Z,96837.00
2022-11-15T05:30:27.815Z,96840.00
2022-11-15T05:32:56.059Z,96835.63
2022-11-15T05:35:37.051Z,96825.91
2022-11-15T05:38:06.861Z,96830.63
2022-11-15T05:40:35.131Z,96830.25
2022-11-15T05:43:03.426Z,96836.25
2022-11-15T05:45:32.019Z,96829.34
2022-11-15T05:48:00.308Z,96833.78
2022-11-15T05:50:28.576Z,96828.03
2022-11-15T05:53:00.889Z,96829.66
2022-11-15T05:55:37.257Z,96821.31
2022-11-15T05:58:05.592Z,96829.03
2022-11-15T06:00:33.847Z,96834.22
2022-11-15T06:03:02.132Z,96838.94
2022-11-15T06:05:30.381Z,96834.56
2022-11-15T06:08:00.049Z,96834.72
2022-11-15T06:10:29.423Z,96835.31
2022-11-15T06:13:03.901Z,96840.91
2022-11-15T06:15:32.244Z,96841.22
2022-11-15T06:18:00.530Z,96829.94
2022-11-15T06:20:28.936Z,96829.13
2022-11-15T06:23:00.169Z,96828.88
2022-11-15T06:25:28.513Z,96839.84
2022-11-15T06:27:57.293Z,96842.53
2022-11-15T06:30:27.272Z,96845.28
2022-11-15T06:33:01.220Z,96843.91
2022-11-15T06:35:29.572Z,96845.88
2022-11-15T06:37:57.901Z,96850.88
2022-11-15T06:40:26.164Z,96855.69
2022-11-15T06:42:59.357Z,96863.50
2022-11-15T06:45:29.023Z,96856.28
2022-11-15T06:47:57.323Z,96866.44
2022-11-15T06:50:26.536Z,96872.66
2022-11-15T06:52:55.675Z,96864.47
2022-11-15T06:55:25.387Z,96875.03
2022-11-15T06:57:54.153Z,96874.34
2022-11-15T07:00:23.372Z,96870.97
2022-11-15T07:02:54.218Z,96877.22
2022-11-15T07:05:22.774Z,96881.44
2022-11-15T07:07:55.249Z,96880.22
2022-11-15T07:10:25.315Z,96884.03
2022-11-15T07:12:53.942Z,96884.66
2022-11-15T07:15:23.737Z,96890.00
2022-11-15T07:17:53.398Z,96889.09
2022-11-15T07:20:22.734Z,96882.19
2022-11-15T07:22:51.010Z,96886.56
2022-11-15T07:25:22.175Z,96884.75
2022-11-15T07:27:57.707Z,96894.59
2022-11-15T07:30:26.824Z,96890.84
2022-11-15T07:32:57.004Z,96896.50
2022-11-15T07:35:25.328Z,96897.81
2022-11-15T07:37:58.216Z,96897.66
2022-11-15T07:40:26.613Z,96901.03
2022-11-15T07:42:54.897Z,96891.81
2022-11-15T07:45:23.568Z,96903.91
2022-11-15T07:47:52.019Z,96896.84
2022-11-15T07:50:21.689Z,96898.72
2022-11-15T07:52:49.966Z,96900.28
2022-11-15T07:55:18.663Z,96894.63
2022-11-15T07:57:46.950Z,96890.66
2022-11-15T08:00:17.882Z,96894.03
2022-11-15T08:02:47.913Z,96896.44
2022-11-15T08:05:16.646Z,96886.06
2022-11-15T08:07:46.306Z,96884.69
2022-11-15T08:10:15.102Z,96891.13
2022-11-15T08:12:43.541Z,96887.56
2022-11-15T08:15:12.493Z,96889.97
2022-11-15T08:17:40.765Z,96890.47
2022-11-15T08:20:09.984Z,96878.22
2022-11-15T08:22:38.274Z,96872.84
2022-11-15T08:25:09.289Z,96874.66
2022-11-15T08:27:37.599Z,96869.91
2022-11-15T08:30:06.553Z,96874.25
2022-11-15T08:32:35.070Z,96870.19
2022-11-15T08:35:04.779Z,96875.53
2022-11-15T08:37:33.289Z,96873.50
2022-11-15T08:40:01.642Z,96875.53
2022-11-15T08:42:31.308Z,96868.00
2022-11-15T08:44:59.558Z,96860.47
2022-11-15T08:47:27.848Z,96869.69
2022-11-15T08:49:56.092Z,96866.22
2022-11-15T08:52:27.157Z,96861.63
2022-11-15T08:54:55.430Z,96856.63
2022-11-15T08:57:23.705Z,96855.50
2022-11-15T08:59:53.380Z,96856.28
2022-11-15T09:02:21.708Z,96846.13
2022-11-15T09:04:49.980Z,96850.09
2022-11-15T09:07:18.319Z,96850.94
2022-11-15T09:09:46.662Z,96845.78
2022-11-15T09:12:15.065Z,96843.88
2022-11-15T09:14:43.418Z,96836.22
2022-11-15T09:17:16.448Z,96843.97
2022-11-15T09:19:50.053Z,96836.06
2022-11-15T09:22:19.694Z,96830.56
2022-11-15T09:24:48.361Z,96841.13
2022-11-15T09:27:16.643Z,96830.63
2022-11-15T09:29:44.890Z,96816.88
2022-11-15T09:32:14.569Z,96810.81
2022-11-15T09:34:42.872Z,96813.34
2022-11-15T09:37:11.586Z,96810.81
2022-11-15T09:39:58.634Z,96814.09
2022-11-15T09:42:34.546Z,96811.50
2022-11-15T09:45:14.874Z,96812.38
2022-11-15T09:48:01.759Z,96806.13
2022-11-15T09:50:37.005Z,96806.03
2022-11-15T09:53:57.571Z,96803.66
2022-11-15T09:56:20.836Z,96798.63
2022-11-15T09:58:53.413Z,96801.13
2022-11-15T10:01:25.246Z,96802.13
2022-11-15T10:03:54.944Z,96800.50
2022-11-15T10:06:25.357Z,96795.44
2022-11-15T10:08:56.938Z,96784.25
2022-11-15T10:11:42.504Z,96783.59
2022-11-15T10:14:13.612Z,96772.00
2022-11-15T10:17:01.308Z,96764.84
2022-11-15T10:19:33.338Z,96764.34
2022-11-15T10:22:08.861Z,96761.16
2022-11-15T10:24:38.057Z,96744.97
2022-11-15T10:27:10.438Z,96745.50
2022-11-15T10:29:38.730Z,96733.84
2022-11-15T10:32:10.179Z,96724.84
2022-11-15T10:34:43.949Z,96723.81
2022-11-15T10:37:12.333Z,96720.63
2022-11-15T10:39:40.978Z,96716.50
2022-11-15T10:42:18.428Z,96709.28
2022-11-15T10:44:47.179Z,96702.09
2022-11-15T10:47:27.669Z,96699.19
2022-11-15T10:49:59.442Z,96702.50
2022-11-15T10:52:28.798Z,96707.97
2022-11-15T10:55:44.143Z,96702.03
2022-11-15T10:58:23.795Z,96703.84
2022-11-15T11:00:52.135Z,96694.13
2022-11-15T11:03:30.504Z,96689.50
2022-11-15T11:06:10.093Z,96680.44
2022-11-15T11:08:38.460Z,96672.41
2022-11-15T11:11:07.206Z,96681.25
2022-11-15T11:13:38.340Z,96684.09
2022-11-15T11:16:24.374Z,96679.75
2022-11-15T11:18:57.548Z,96678.47
2022-11-15T11:21:34.189Z,96670.25
2022-11-15T11:24:08.015Z,96679.81
2022-11-15T11:26:45.043Z,96672.44
2022-11-15T11:29:23.449Z,96662.41
2022-11-15T11:32:12.536Z,96653.81
2022-11-15T11:34:47.335Z,96657.69
2022-11-15T11:37:20.433Z,96652.63
2022-11-15T11:39:54.468Z,96643.03
2022-11-15T11:42:29.546Z,96643.22
2022-11-15T11:45:01.122Z,96649.81
2022-11-15T11:47:34.818Z,96635.38
2022-11-15T11:50:04.610Z,96633.84
2022-11-15T11:52:36.749Z,96621.94
2022-11-15T11:55:08.147Z,96617.56
2022-11-15T11:57:42.086Z,96617.22
2022-11-15T12:00:18.497Z,96621.09
2022-11-15T12:02:49.783Z,96617.22
2022-11-15T12:05:20.918Z,96627.16
2022-11-15T12:07:51.818Z,96627.78
2022-11-15T12:10:24.906Z,96624.31
2022-11-15T12:12:57.919Z,96624.50
2022-11-15T12:15:27.525Z,96623.13
2022-11-15T12:17:57.567Z,96622.44
2022-11-15T12:20:27.491Z,96622.78
2022-11-15T12:22:58.394Z,96619.09
2022-11-15T12:25:32.063Z,96618.41
2022-11-15T12:28:03.130Z,96615.75
2022-11-15T12:30:44.816Z,96610.72
2022-11-15T12:33:33.804Z,96611.53
2022-11-15T12:36:03.115Z,96607.53
2022-11-15T12:38:54.283Z,96597.63
2022-11-15T12:41:23.645Z,96590.25
2022-11-15T12:43:52.380Z,96589.56
2022-11-15T12:46:23.971Z,96588.03
2022-11-15T12:48:55.575Z,96585.72
2022-11-15T12:51:25.130Z,96573.97
2022-11-15T12:53:54.840Z,96564.19
2022-11-15T12:56:25.093Z,96567.91
2022-11-15T12:58:55.897Z,96557.66
2022-11-15T13:01:55.656Z,96558.66
2022-11-15T13:04:27.388Z,96559.19
2022-11-15T13:06:56.906Z,96552.47
2022-11-15T13:09:54.760Z,96533.66
2022-11-15T13:12:54.446Z,96532.78
2022-11-15T13:15:48.468Z,96529.97
2022-11-15T13:18:35.889Z,96533.81
2022-11-15T13:21:27.494Z,96529.97
2022-11-15T13:23:57.096Z,96525.72
2022-11-15T13:26:27.505Z,96510.31
2022-11-15T13:28:57.131Z,96522.25
2022-11-15T13:31:28.677Z,96515.00
2022-11-15T13:33:58.517Z,96518.19
2022-11-15T13:36:28.740Z,96513.34
2022-11-15T13:38:59.175Z,96512.84
2022-11-15T13:41:30.465Z,96503.28
2022-11-15T13:44:00.792Z,96511.16
2022-11-15T13:46:29.769Z,96501.28
2022-11-15T13:48:59.282Z,96503.59
2022-11-15T13:51:32.065Z,96503.78
2022-11-15T13:54:03.731Z,96500.91
2022-11-15T13:56:33.662Z,96501.94
2022-11-15T13:59:02.074Z,96488.84
2022-11-15T14:01:31.511Z,96497.56
2022-11-15T14:04:01.129Z,96484.25
2022-11-15T14:06:30.647Z,96487.13
2022-11-15T14:09:02.437Z,96473.53
2022-11-15T14:11:32.556Z,96466.78
2022-11-15T14:14:15.166Z,96455.53
2022-11-15T14:16:44.737Z,96464.09
2022-11-15T14:19:14.136Z,96455.88
2022-11-15T14:22:10.980Z,96442.97
2022-11-15T14:24:39.595Z,96435.13
2022-11-15T14:27:25.264Z,96435.78
2022-11-15T14:29:56.524Z,96435.66
2022-11-15T14:32:28.038Z,96431.47
2022-11-15T14:34:57.719Z,96427.09
2022-11-15T14:37:26.990Z,96426.22
2022-11-15T14:39:55.403Z,96418.00
2022-11-15T14:42:25.442Z,96413.31
2022-11-15T14:44:53.989Z,96416.00
2022-11-15T14:47:22.358Z,96411.09
2022-11-15T14:49:50.774Z,96407.22
2022-11-15T14:52:31.823Z,96408.44
2022-11-15T14:55:02.517Z,96405.25
2022-11-15T14:57:32.446Z,96405.75
2022-11-15T15:00:00.733Z,96397.66
2022-11-15T15:02:29.267Z,96393.34
2022-11-15T15:05:02.178Z,96409.31
2022-11-15T15:07:30.985Z,96392.88
2022-11-15T15:10:32.383Z,96381.25
2022-11-15T15:12:49.813Z,96380.41
2022-11-15T15:15:19.373Z,96373.06
2022-11-15T15:17:47.989Z,96373.34
2022-11-15T15:20:16.702Z,96370.84
2022-11-15T15:22:45.045Z,96366.03
2022-11-15T15:25:23.111Z,96361.63
2022-11-15T15:27:52.851Z,96361.78
2022-11-15T15:30:21.859Z,96360.31
2022-11-15T15:32:50.350Z,96361.97
2022-11-15T15:35:20.602Z,96350.38
2022-11-15T15:37:49.574Z,96353.59
2022-11-15T15:40:19.582Z,96340.50
2022-11-15T15:42:48.121Z,96349.28
2022-11-15T15:45:18.316Z,96349.28
2022-11-15T15:47:49.396Z,96349.44
2022-11-15T15:50:23.480Z,96344.56
2022-11-15T15:52:51.944Z,96347.59
2022-11-15T15:55:20.543Z,96332.66
2022-11-15T15:57:49.025Z,96329.47
2022-11-15T16:00:20.403Z,96336.19
2022-11-15T16:03:08.888Z,96340.72
2022-11-15T16:05:39.337Z,96334.84
2022-11-15T16:08:07.684Z,96335.03
2022-11-15T16:10:37.842Z,96338.72
2022-11-15T16:13:06.641Z,96329.47
2022-11-15T16:15:36.310Z,96328.44
2022-11-15T16:18:05.842Z,96324.94
2022-11-15T16:20:37.134Z,96323.75
2022-11-15T16:23:09.058Z,96325.94
2022-11-15T16:25:42.953Z,96319.41
2022-11-15T16:28:18.846Z,96319.41
2022-11-15T16:30:52.436Z,96318.94
2022-11-15T16:33:25.313Z,96314.41
2022-11-15T16:35:54.118Z,96322.44
2022-11-15T16:38:22.514Z,96311.25
2022-11-15T16:40:50.847Z,96305.84
2022-11-15T16:43:19.181Z,96312.22
2022-11-15T16:45:49.011Z,96304.34
2022-11-15T16:48:23.315Z,96300.97
2022-11-15T16:50:51.624Z,96307.38
2022-11-15T16:53:20.038Z,96315.59
2022-11-15T16:55:48.532Z,96311.56
2022-11-15T16:58:16.888Z,96311.56
2022-11-15T17:00:45.439Z,96309.00
2022-11-15T17:03:15.317Z,96298.63
2022-11-15T17:05:43.611Z,96303.63
2022-11-15T17:08:11.991Z,96299.78
2022-11-15T17:10:48.024Z,96308.69
2022-11-15T17:13:16.744Z,96304.16
2022-11-15T17:15:45.037Z,96291.91
2022-11-15T17:18:15.718Z,96287.38
2022-11-15T17:20:44.153Z,96300.44
2022-11-15T17:23:14.879Z,96296.09
2022-11-15T17:25:43.317Z,96300.31
2022-11-15T17:28:12.872Z,96298.28
2022-11-15T17:30:45.272Z,96299.47
2022-11-15T17:33:16.929Z,96298.28
2022-11-15T17:35:45.370Z,96294.13
2022-11-15T17:38:14.577Z,96305.66
2022-11-15T17:40:43.024Z,96299.13
2022-11-15T17:43:11.747Z,96297.78
2022-11-15T17:45:42.438Z,96295.78
2022-11-15T17:48:10.717Z,96299.97
2022-11-15T17:50:40.401Z,96292.09
2022-11-15T17:53:09.956Z,96290.22
2022-11-15T17:55:38.257Z,96290.59
2022-11-15T17:58:06.577Z,96299.78
2022-11-15T18:00:41.922Z,96296.94
2022-11-15T18:03:17.464Z,96299.94
2022-11-15T18:05:47.698Z,96288.84
2022-11-15T18:08:18.602Z,96296.09
2022-11-15T18:10:48.431Z,96301.81
2022-11-15T18:13:16.721Z,96293.94
2022-11-15T18:15:45.045Z,96292.22
2022-11-15T18:18:13.362Z,96300.31
2022-11-15T18:20:42.533Z,96283.38
2022-11-15T18:23:12.188Z,96294.56
2022-11-15T18:25:40.476Z,96295.09
2022-11-15T18:28:08.761Z,96287.53
2022-11-15T18:30:39.729Z,96284.19
2022-11-15T18:33:08.082Z,96279.03
2022-11-15T18:35:37.155Z,96281.34
2022-11-15T18:38:05.480Z,96269.78
2022-11-15T18:40:35.183Z,96268.75
2022-11-15T18:43:03.481Z,96261.69
2022-11-15T18:45:32.274Z,96251.44
2022-11-15T18:48:00.600Z,96260.53
2022-11-15T18:50:28.918Z,96254.88
2022-11-15T18:52:57.319Z,96258.03
2022-11-15T18:55:26.144Z,96250.50
2022-11-15T18:57:56.153Z,96254.53
2022-11-15T19:00:24.665Z,96248.50
2022-11-15T19:02:55.435Z,96240.94
2022-11-15T19:05:23.857Z,96247.47
2022-11-15T19:07:52.335Z,96241.13
2022-11-15T19:10:20.648Z,96237.13
2022-11-15T19:12:49.577Z,96230.56
2022-11-15T19:15:19.242Z,96233.75
2022-11-15T19:17:48.033Z,96232.59
2022-11-15T19:20:16.498Z,96235.31
2022-11-15T19:22:44.788Z,96232.22
2022-11-15T19:25:13.130Z,96231.78
2022-11-15T19:27:41.728Z,96230.91
2022-11-15T19:30:11.037Z,96231.59
2022-11-15T19:32:40.767Z,96230.59
2022-11-15T19:35:09.466Z,96232.13
2022-11-15T19:37:41.608Z,96233.81
2022-11-15T19:40:12.754Z,96232.28
2022-11-15T19:42:42.600Z,96233.63
2022-11-15T19:45:11.781Z,96234.44
2022-11-15T19:47:41.531Z,96230.94
2022-11-15T19:50:10.675Z,96230.44
2022-11-15T19:52:39.160Z,96235.16
2022-11-15T19:55:08.249Z,96237.81
2022-11-15T19:57:36.625Z,96231.59
2022-11-15T20:00:07.544Z,96235.16
2022-11-15T20:02:36.160Z,96222.91
2022-11-15T20:05:06.145Z,96221.72
2022-11-15T20:07:53.048Z,96214.03
2022-11-15T20:10:21.339Z,96217.06
2022-11-15T20:12:49.651Z,96227.13
2022-11-15T20:15:18.375Z,96218.25
2022-11-15T20:17:46.738Z,96216.88
2022-11-15T20:20:16.966Z,96219.91
2022-11-15T20:22:45.253Z,96238.84
2022-11-15T20:25:13.814Z,96217.88
2022-11-15T20:27:42.175Z,96220.91
2022-11-15T20:30:11.750Z,96220.91
2022-11-15T20:32:40.520Z,96215.56
2022-11-15T20:35:09.176Z,96218.25
2022-11-15T20:37:38.855Z,96211.88
2022-11-15T20:40:07.952Z,96206.34
2022-11-15T20:42:36.532Z,96204.16
2022-11-15T20:45:05.160Z,96204.50
2022-11-15T20:47:33.617Z,96210.84
2022-11-15T20:50:20.788Z,96203.00
2022-11-15T20:52:51.106Z,96203.81
2022-11-15T20:55:19.362Z,96202.34
2022-11-15T20:57:48.999Z,96198.97
2022-11-15T21:00:17.677Z,96197.28
2022-11-15T21:02:45.930Z,96197.47
2022-11-15T21:05:14.515Z,96185.91
2022-11-15T21:07:42.819Z,96185.25
2022-11-15T21:10:26.389Z,96185.06
2022-11-15T21:12:54.672Z,96173.19
2022-11-15T21:15:22.957Z,96175.38
2022-11-15T21:17:51.226Z,96171.03
2022-11-15T21:20:19.626Z,96169.81
2022-11-15T21:22:47.908Z,96172.03
2022-11-15T21:25:17.589Z,96169.66
2022-11-15T21:27:45.870Z,96174.88
2022-11-15T21:30:14.727Z,96173.34
2022-11-15T21:32:43.826Z,96169.19
2022-11-15T21:35:12.081Z,96176.53
2022-11-15T21:37:40.374Z,96167.16
2022-11-15T21:40:10.004Z,96174.34
2022-11-15T21:42:39.668Z,96160.94
2022-11-15T21:45:08.962Z,96158.28
2022-11-15T21:47:38.397Z,96158.47
2022-11-15T21:50:09.035Z,96156.78
2022-11-15T21:52:37.510Z,96151.75
2022-11-15T21:55:06.118Z,96143.88
2022-11-15T21:57:34.449Z,96133.34
2022-11-15T22:00:17.924Z,96138.03
2022-11-15T22:02:46.512Z,96139.88
2022-11-15T22:05:14.795Z,96131.00
2022-11-15T22:07:43.071Z,96128.13
2022-11-15T22:10:11.624Z,96132.16
2022-11-15T22:12:40.672Z,96131.00
2022-11-15T22:15:10.956Z,96129.66
2022-11-15T22:17:53.025Z,96117.59
2022-11-15T22:20:43.572Z,96121.13
2022-11-15T22:23:11.518Z,96116.41
2022-11-15T22:25:40.323Z,96113.75
2022-11-15T22:28:08.636Z,96111.41
2022-11-15T22:30:38.603Z,96106.88
2022-11-15T22:33:06.893Z,96110.22
2022-11-15T22:35:35.715Z,96098.69
2022-11-15T22:38:04.287Z,96106.03
2022-11-15T22:40:32.588Z,96096.53
2022-11-15T22:43:00.889Z,96096.34
2022-11-15T22:45:29.153Z,96096.34
2022-11-15T22:47:59.154Z,96094.16
2022-11-15T22:50:27.430Z,96087.66
2022-11-15T22:52:55.774Z,96096.69
2022-11-15T22:55:24.331Z,96088.97
2022-11-15T22:57:52.621Z,96092.31
2022-11-15T23:00:21.022Z,96085.13
2022-11-15T23:02:53.240Z,96085.47
2022-11-15T23:05:23.977Z,96083.63
2022-11-15T23:07:52.273Z,96077.44
2022-11-15T23:10:34.429Z,96072.91
2022-11-15T23:13:18.164Z,96064.03
2022-11-15T23:16:01.407Z,96064.53
2022-11-15T23:18:30.299Z,96058.16
2022-11-15T23:21:00.184Z,96066.53
2022-11-15T23:23:27.768Z,96060.38
2022-11-15T23:25:59.956Z,96063.03
2022-11-15T23:28:28.302Z,96063.22
2022-11-15T23:31:10.666Z,96059.84
2022-11-15T23:33:52.822Z,96059.50
2022-11-15T23:36:22.506Z,96062.22
2022-11-15T23:38:51.138Z,96056.84
2022-11-15T23:41:21.911Z,96050.16
2022-11-15T23:43:50.177Z,96041.44
2022-11-15T23:46:18.473Z,96053.50
2022-11-15T23:48:46.746Z,96050.81
2022-11-15T23:51:15.047Z,96043.78
2022-11-15T23:53:44.702Z,96046.78
2022-11-15T23:56:13.774Z,96035.72
2022-11-15T23:58:42.416Z,96037.91
